PWSweather.com
Personal Weather Stations
Station Observations
RRFWEATHER
Rail Road Flat, Rail Road Flat, CA 95248

Rail Road FlatRail Road Flat, CA 95248

Lat: 38.306238, Lon: -120.514548

Elevation: 2808

Station Type: Davis Vantage Pro2

http://www.railroadflat.org

Latest ConditionsUpdated 5:50:02 PM PST Wednesday, Jan 16, 2019
Currently Today's Max Today's Min Today's Average
Temperature 44.9°F7.2°C 53.5°F11.9°C 44.2°F6.8°C 47.6°F8.7°C
Dew Point 42.7°F5.9°C 44.4°F6.9°C 38.0°F3.3°C 42.9°F6.1°C
Winds 13.8 mph SE22.2 kmh SE 17.3 mph -27.8 kmh - - 10.3 mph 16.6 kmh
Wind Gusts 24.2 mph38.9 kmh 27.6 mph44.4 kmh - -
Humidity 92% 96% 56% 85%
Pressure 29.92 in1013.2 mb 30.07 in1018.3 mb 29.90 in1012.5 mb -
Precipitation - 0.53 in13.5 mm - -
Hour Temp Dew Point Humidity Winds Wind Gusts Pressure Precip Precip Rate Daily Precip Total
05:50 PM 44.9°F7.2°C 42.7°F5.9°C 92% 13.8 mph SE22.2 kmh SE 24.2 mph38.9 kmh 29.92 in1013.2 mb - 0.14 in3.6 mm 0.53 in13.5 mm
05:45 PM 44.7°F7.1°C 42.5°F5.8°C 92% 12.7 mph SE20.4 kmh SE 23.0 mph37.0 kmh 29.92 in1013.2 mb - 0.14 in3.6 mm 0.52 in13.2 mm
05:40 PM 44.8°F7.1°C 42.3°F5.7°C 91% 11.5 mph SE18.5 kmh SE 12.7 mph20.4 kmh 29.92 in1013.2 mb - 0.14 in3.6 mm 0.51 in13.0 mm
05:35 PM 44.9°F7.2°C 42.4°F5.8°C 91% 12.7 mph SE20.4 kmh SE 17.3 mph27.8 kmh 29.92 in1013.2 mb - 0.14 in3.6 mm 0.50 in12.7 mm
05:30 PM 44.9°F7.2°C 42.5°F5.8°C 91% 13.8 mph SE22.2 kmh SE 23.0 mph37.0 kmh 29.91 in1012.9 mb - 0.14 in3.6 mm 0.49 in12.4 mm
05:25 PM 45.2°F7.3°C 42.5°F5.8°C 90% 13.8 mph SE22.2 kmh SE 21.9 mph35.2 kmh 29.91 in1012.9 mb - 0.14 in3.6 mm 0.48 in12.2 mm
05:20 PM 45.5°F7.5°C 42.8°F6.0°C 90% 15.0 mph SE24.1 kmh SE 26.5 mph42.6 kmh 29.90 in1012.5 mb - 0.16 in4.1 mm 0.48 in12.2 mm
05:15 PM 45.5°F7.5°C 42.7°F5.9°C 90% 16.1 mph SE25.9 kmh SE 23.0 mph37.0 kmh 29.90 in1012.5 mb - 0.16 in4.1 mm 0.47 in11.9 mm
05:10 PM 45.4°F7.4°C 42.9°F6.1°C 91% 13.8 mph SE22.2 kmh SE 19.6 mph31.5 kmh 29.91 in1012.9 mb - 0.16 in4.1 mm 0.46 in11.7 mm
05:00 PM 45.6°F7.6°C 42.9°F6.1°C 90% 10.4 mph SE16.7 kmh SE 13.8 mph22.2 kmh 29.92 in1013.2 mb - 0.15 in3.8 mm 0.44 in11.2 mm
04:55 PM 45.8°F7.7°C 43.0°F6.1°C 90% 11.5 mph SE18.5 kmh SE 15.0 mph24.1 kmh 29.92 in1013.2 mb - 0.12 in3.0 mm 0.41 in10.4 mm
04:50 PM 45.7°F7.6°C 42.9°F6.1°C 90% 11.5 mph SE18.5 kmh SE 16.1 mph25.9 kmh 29.92 in1013.2 mb - 0.10 in2.5 mm 0.39 in9.9 mm
04:45 PM 45.4°F7.4°C 43.0°F6.1°C 91% 11.5 mph SE18.5 kmh SE 18.4 mph29.6 kmh 29.92 in1013.2 mb - 0.10 in2.5 mm 0.38 in9.7 mm
04:40 PM 45.6°F7.6°C 43.1°F6.2°C 91% 11.5 mph SE18.5 kmh SE 19.6 mph31.5 kmh 29.93 in1013.5 mb - 0.10 in2.5 mm 0.37 in9.4 mm
04:35 PM 45.7°F7.6°C 42.9°F6.1°C 90% 12.7 mph SE20.4 kmh SE 18.4 mph29.6 kmh 29.94 in1013.9 mb - 0.10 in2.5 mm 0.36 in9.1 mm
04:30 PM 45.8°F7.7°C 43.0°F6.1°C 90% 12.7 mph SE20.4 kmh SE 20.7 mph33.3 kmh 29.94 in1013.9 mb - 0.10 in2.5 mm 0.35 in8.9 mm
04:25 PM 45.8°F7.7°C 43.0°F6.1°C 90% 11.5 mph SE18.5 kmh SE 17.3 mph27.8 kmh 29.95 in1014.2 mb - 0.10 in2.5 mm 0.34 in8.6 mm
04:20 PM 45.7°F7.6°C 42.9°F6.1°C 90% 11.5 mph SE18.5 kmh SE 19.6 mph31.5 kmh 29.95 in1014.2 mb - 0.09 in2.3 mm 0.32 in8.1 mm
04:15 PM 45.6°F7.6°C 43.1°F6.2°C 91% 8.1 mph SSE13.0 kmh SSE 17.3 mph27.8 kmh 29.94 in1013.9 mb - 0.08 in2.0 mm 0.31 in7.9 mm
04:10 PM 45.6°F7.6°C 43.1°F6.2°C 91% 9.2 mph SE14.8 kmh SE 15.0 mph24.1 kmh 29.93 in1013.5 mb - 0.08 in2.0 mm 0.30 in7.6 mm
04:00 PM 45.7°F7.6°C 43.2°F6.2°C 91% 8.1 mph SE13.0 kmh SE 12.7 mph20.4 kmh 29.94 in1013.9 mb - 0.08 in2.0 mm 0.29 in7.4 mm
03:55 PM 45.9°F7.7°C 43.1°F6.2°C 90% 11.5 mph SE18.5 kmh SE 16.1 mph25.9 kmh 29.93 in1013.5 mb - 0.08 in2.0 mm 0.29 in7.4 mm
03:50 PM 46.1°F7.8°C 43.0°F6.1°C 89% 12.7 mph SE20.4 kmh SE 19.6 mph31.5 kmh 29.94 in1013.9 mb - 0.08 in2.0 mm 0.29 in7.4 mm
03:45 PM 46.2°F7.9°C 43.1°F6.2°C 89% 12.7 mph SE20.4 kmh SE 19.6 mph31.5 kmh 29.95 in1014.2 mb - 0.08 in2.0 mm 0.28 in7.1 mm
03:40 PM 46.5°F8.1°C 43.1°F6.2°C 88% 12.7 mph SE20.4 kmh SE 17.3 mph27.8 kmh 29.94 in1013.9 mb - 0.08 in2.0 mm 0.27 in6.9 mm
03:35 PM 46.8°F8.2°C 43.1°F6.2°C 87% 12.7 mph SE20.4 kmh SE 19.6 mph31.5 kmh 29.95 in1014.2 mb - 0.07 in1.8 mm 0.26 in6.6 mm
03:30 PM 46.9°F8.3°C 42.9°F6.1°C 86% 12.7 mph SSE20.4 kmh SSE 16.1 mph25.9 kmh 29.95 in1014.2 mb - 0.06 in1.5 mm 0.25 in6.4 mm
03:25 PM 47.1°F8.4°C 42.8°F6.0°C 85% 11.5 mph SE18.5 kmh SE 17.3 mph27.8 kmh 29.95 in1014.2 mb - 0.05 in1.3 mm 0.24 in6.1 mm
03:20 PM 47.2°F8.4°C 43.2°F6.2°C 86% 10.4 mph SE16.7 kmh SE 12.7 mph20.4 kmh 29.94 in1013.9 mb - 0.04 in1.0 mm 0.23 in5.8 mm
03:15 PM 47.4°F8.6°C 43.1°F6.2°C 85% 9.2 mph SE14.8 kmh SE 12.7 mph20.4 kmh 29.95 in1014.2 mb - 0.04 in1.0 mm 0.23 in5.8 mm
03:10 PM 47.9°F8.8°C 43.3°F6.3°C 84% 8.1 mph SE13.0 kmh SE 11.5 mph18.5 kmh 29.95 in1014.2 mb - 0.03 in0.8 mm 0.22 in5.6 mm
03:00 PM 48.2°F9.0°C 42.7°F5.9°C 81% 11.5 mph SSE18.5 kmh SSE 17.3 mph27.8 kmh 29.95 in1014.2 mb - 0.02 in0.5 mm 0.21 in5.3 mm
02:55 PM 48.1°F8.9°C 42.6°F5.9°C 81% 8.1 mph SE13.0 kmh SE 18.4 mph29.6 kmh 29.95 in1014.2 mb - 0.02 in0.5 mm 0.21 in5.3 mm
02:50 PM 48.5°F9.2°C 42.7°F5.9°C 80% 8.1 mph SE13.0 kmh SE 17.3 mph27.8 kmh 29.94 in1013.9 mb - 0.02 in0.5 mm 0.21 in5.3 mm
02:45 PM 49.1°F9.5°C 42.5°F5.8°C 78% 8.1 mph ESE13.0 kmh ESE 13.8 mph22.2 kmh 29.92 in1013.2 mb - 0.01 in0.3 mm 0.20 in5.1 mm
02:40 PM 49.9°F9.9°C 41.9°F5.5°C 74% 10.4 mph SE16.7 kmh SE 15.0 mph24.1 kmh 29.94 in1013.9 mb - 0.01 in0.3 mm 0.20 in5.1 mm
02:35 PM 50.8°F10.4°C 41.4°F5.2°C 70% 16.1 mph SSE25.9 kmh SSE 19.6 mph31.5 kmh 29.95 in1014.2 mb - 0.00 in0.0 mm 0.19 in4.8 mm
02:30 PM 51.7°F10.9°C 40.7°F4.8°C 66% 17.3 mph SE27.8 kmh SE 26.5 mph42.6 kmh 29.93 in1013.5 mb - 0.00 in0.0 mm 0.19 in4.8 mm
02:25 PM 51.9°F11.1°C 40.5°F4.7°C 65% 10.4 mph SE16.7 kmh SE 19.6 mph31.5 kmh 29.93 in1013.5 mb - 0.00 in0.0 mm 0.19 in4.8 mm
02:20 PM 51.9°F11.1°C 40.1°F4.5°C 64% 10.4 mph SSE16.7 kmh SSE 19.6 mph31.5 kmh 29.93 in1013.5 mb - 0.00 in0.0 mm 0.19 in4.8 mm
02:15 PM 52.0°F11.1°C 39.8°F4.3°C 63% 9.2 mph SE14.8 kmh SE 16.1 mph25.9 kmh 29.94 in1013.9 mb - 0.00 in0.0 mm 0.19 in4.8 mm
02:10 PM 52.2°F11.2°C 39.6°F4.2°C 62% 11.5 mph SE18.5 kmh SE 19.6 mph31.5 kmh 29.94 in1013.9 mb - 0.00 in0.0 mm 0.19 in4.8 mm
02:00 PM 53.0°F11.7°C 39.5°F4.2°C 60% 11.5 mph SE18.5 kmh SE 17.3 mph27.8 kmh 29.94 in1013.9 mb - 0.00 in0.0 mm 0.19 in4.8 mm
01:55 PM 53.3°F11.8°C 38.0°F3.3°C 56% 12.7 mph SE20.4 kmh SE 20.7 mph33.3 kmh 29.95 in1014.2 mb - 0.00 in0.0 mm 0.19 in4.8 mm
01:50 PM 52.9°F11.6°C 39.0°F3.9°C 59% 11.5 mph SE18.5 kmh SE 27.6 mph44.4 kmh 29.95 in1014.2 mb - 0.00 in0.0 mm 0.19 in4.8 mm
01:45 PM 53.1°F11.7°C 38.7°F3.7°C 58% 11.5 mph SE18.5 kmh SE 19.6 mph31.5 kmh 29.94 in1013.9 mb - 0.00 in0.0 mm 0.19 in4.8 mm
01:40 PM 53.1°F11.7°C 38.2°F3.4°C 57% 15.0 mph SE24.1 kmh SE 17.3 mph27.8 kmh 29.94 in1013.9 mb - 0.00 in0.0 mm 0.19 in4.8 mm
01:35 PM 53.1°F11.7°C 39.1°F3.9°C 59% 10.4 mph SE16.7 kmh SE 17.3 mph27.8 kmh 29.95 in1014.2 mb - 0.00 in0.0 mm 0.19 in4.8 mm
01:30 PM 53.3°F11.8°C 38.4°F3.6°C 57% 12.7 mph SE20.4 kmh SE 19.6 mph31.5 kmh 29.94 in1013.9 mb - 0.00 in0.0 mm 0.19 in4.8 mm
01:25 PM 53.3°F11.8°C 38.4°F3.6°C 57% 13.8 mph SE22.2 kmh SE 15.0 mph24.1 kmh 29.94 in1013.9 mb - 0.00 in0.0 mm 0.19 in4.8 mm
01:20 PM 53.1°F11.7°C 38.7°F3.7°C 58% 12.7 mph SSE20.4 kmh SSE 18.4 mph29.6 kmh 29.96 in1014.6 mb - 0.00 in0.0 mm 0.19 in4.8 mm
01:15 PM 53.3°F11.8°C 39.4°F4.1°C 59% 11.5 mph SE18.5 kmh SE 18.4 mph29.6 kmh 29.96 in1014.6 mb - 0.00 in0.0 mm 0.19 in4.8 mm
01:10 PM 53.4°F11.9°C 38.6°F3.7°C 57% 13.8 mph SE22.2 kmh SE 24.2 mph38.9 kmh 29.96 in1014.6 mb - 0.00 in0.0 mm 0.19 in4.8 mm
01:00 PM 53.4°F11.9°C 39.0°F3.9°C 58% 11.5 mph SSE18.5 kmh SSE 21.9 mph35.2 kmh 29.97 in1014.9 mb - 0.00 in0.0 mm 0.19 in4.8 mm
12:55 PM 53.5°F11.9°C 38.6°F3.7°C 57% 16.1 mph SE25.9 kmh SE 26.5 mph42.6 kmh 29.96 in1014.6 mb - 0.00 in0.0 mm 0.19 in4.8 mm
12:50 PM 53.4°F11.9°C 39.0°F3.9°C 58% 15.0 mph SE24.1 kmh SE 18.4 mph29.6 kmh 29.96 in1014.6 mb - 0.00 in0.0 mm 0.19 in4.8 mm
12:45 PM 53.3°F11.8°C 39.8°F4.3°C 60% 12.7 mph SE20.4 kmh SE 16.1 mph25.9 kmh 29.96 in1014.6 mb - 0.00 in0.0 mm 0.19 in4.8 mm
12:40 PM 53.1°F11.7°C 40.0°F4.4°C 61% 11.5 mph SE18.5 kmh SE 19.6 mph31.5 kmh 29.96 in1014.6 mb - 0.00 in0.0 mm 0.19 in4.8 mm
12:35 PM 53.0°F11.7°C 39.9°F4.4°C 61% 11.5 mph SE18.5 kmh SE 17.3 mph27.8 kmh 29.96 in1014.6 mb - 0.00 in0.0 mm 0.19 in4.8 mm
12:30 PM 52.9°F11.6°C 40.2°F4.6°C 62% 9.2 mph SE14.8 kmh SE 13.8 mph22.2 kmh 29.96 in1014.6 mb - 0.00 in0.0 mm 0.19 in4.8 mm
12:25 PM 52.6°F11.4°C 40.4°F4.7°C 63% 12.7 mph SSE20.4 kmh SSE 18.4 mph29.6 kmh 29.98 in1015.2 mb - 0.00 in0.0 mm 0.19 in4.8 mm
12:20 PM 52.5°F11.4°C 40.3°F4.6°C 63% 11.5 mph SE18.5 kmh SE 17.3 mph27.8 kmh 29.98 in1015.2 mb - 0.00 in0.0 mm 0.19 in4.8 mm
12:15 PM 52.4°F11.3°C 40.6°F4.8°C 64% 10.4 mph SE16.7 kmh SE 18.4 mph29.6 kmh 29.99 in1015.6 mb - 0.00 in0.0 mm 0.19 in4.8 mm
12:10 PM 52.2°F11.2°C 40.4°F4.7°C 64% 10.4 mph SE16.7 kmh SE 16.1 mph25.9 kmh 29.99 in1015.6 mb - 0.00 in0.0 mm 0.19 in4.8 mm
12:00 PM 51.7°F10.9°C 41.1°F5.1°C 67% 10.4 mph SE16.7 kmh SE 16.1 mph25.9 kmh 29.99 in1015.6 mb - 0.00 in0.0 mm 0.19 in4.8 mm
11:55 AM 51.7°F10.9°C 41.4°F5.2°C 68% 9.2 mph SE14.8 kmh SE 16.1 mph25.9 kmh 30.00 in1015.9 mb - 0.00 in0.0 mm 0.19 in4.8 mm
11:50 AM 51.5°F10.8°C 41.3°F5.2°C 68% 12.7 mph SE20.4 kmh SE 24.2 mph38.9 kmh 30.00 in1015.9 mb - 0.00 in0.0 mm 0.19 in4.8 mm
11:45 AM 51.2°F10.7°C 41.8°F5.4°C 70% 9.2 mph SE14.8 kmh SE 16.1 mph25.9 kmh 30.01 in1016.3 mb - 0.00 in0.0 mm 0.19 in4.8 mm
11:40 AM 51.1°F10.6°C 42.4°F5.8°C 72% 6.9 mph SE11.1 kmh SE 12.7 mph20.4 kmh 30.01 in1016.3 mb - 0.00 in0.0 mm 0.19 in4.8 mm
11:35 AM 51.2°F10.7°C 42.5°F5.8°C 72% 8.1 mph SE13.0 kmh SE 16.1 mph25.9 kmh 30.01 in1016.3 mb - 0.00 in0.0 mm 0.19 in4.8 mm
11:30 AM 51.0°F10.6°C 42.3°F5.7°C 72% 9.2 mph SE14.8 kmh SE 15.0 mph24.1 kmh 30.01 in1016.3 mb - 0.00 in0.0 mm 0.19 in4.8 mm
11:25 AM 51.0°F10.6°C 42.6°F5.9°C 73% 10.4 mph SE16.7 kmh SE 17.3 mph27.8 kmh 30.02 in1016.6 mb - 0.00 in0.0 mm 0.19 in4.8 mm
11:20 AM 50.9°F10.5°C 42.9°F6.1°C 74% 10.4 mph SE16.7 kmh SE 13.8 mph22.2 kmh 30.02 in1016.6 mb - 0.00 in0.0 mm 0.19 in4.8 mm
11:15 AM 50.9°F10.5°C 43.3°F6.3°C 75% 8.1 mph SE13.0 kmh SE 11.5 mph18.5 kmh 30.02 in1016.6 mb - 0.00 in0.0 mm 0.19 in4.8 mm
11:10 AM 50.9°F10.5°C 42.9°F6.1°C 74% 10.4 mph SE16.7 kmh SE 15.0 mph24.1 kmh 30.03 in1016.9 mb - 0.00 in0.0 mm 0.19 in4.8 mm
11:00 AM 50.7°F10.4°C 43.4°F6.3°C 76% 8.1 mph ESE13.0 kmh ESE 16.1 mph25.9 kmh 30.04 in1017.3 mb - 0.00 in0.0 mm 0.19 in4.8 mm
10:55 AM 50.7°F10.4°C 43.4°F6.3°C 76% 10.4 mph SE16.7 kmh SE 16.1 mph25.9 kmh 30.04 in1017.3 mb - 0.00 in0.0 mm 0.19 in4.8 mm
10:50 AM 50.6°F10.3°C 43.3°F6.3°C 76% 9.2 mph SE14.8 kmh SE 12.7 mph20.4 kmh 30.05 in1017.6 mb - 0.00 in0.0 mm 0.19 in4.8 mm
10:45 AM 50.6°F10.3°C 43.7°F6.5°C 77% 8.1 mph SE13.0 kmh SE 13.8 mph22.2 kmh 30.05 in1017.6 mb - 0.00 in0.0 mm 0.19 in4.8 mm
10:40 AM 50.6°F10.3°C 43.7°F6.5°C 77% 10.4 mph SE16.7 kmh SE 12.7 mph20.4 kmh 30.05 in1017.6 mb - 0.00 in0.0 mm 0.19 in4.8 mm
10:35 AM 50.5°F10.3°C 43.6°F6.4°C 77% 10.4 mph SE16.7 kmh SE 15.0 mph24.1 kmh 30.05 in1017.6 mb - 0.00 in0.0 mm 0.19 in4.8 mm
10:30 AM 50.5°F10.3°C 43.9°F6.6°C 78% 9.2 mph SE14.8 kmh SE 15.0 mph24.1 kmh 30.05 in1017.6 mb - 0.00 in0.0 mm 0.19 in4.8 mm
10:25 AM 50.4°F10.2°C 43.5°F6.4°C 77% 10.4 mph SE16.7 kmh SE 18.4 mph29.6 kmh 30.05 in1017.6 mb - 0.00 in0.0 mm 0.19 in4.8 mm
10:20 AM 50.2°F10.1°C 43.7°F6.5°C 78% 11.5 mph SE18.5 kmh SE 15.0 mph24.1 kmh 30.06 in1017.9 mb - 0.00 in0.0 mm 0.19 in4.8 mm
10:15 AM 50.2°F10.1°C 43.6°F6.4°C 78% 11.5 mph SE18.5 kmh SE 19.6 mph31.5 kmh 30.06 in1017.9 mb - 0.00 in0.0 mm 0.19 in4.8 mm
10:10 AM 50.0°F10.0°C 43.7°F6.5°C 79% 11.5 mph SE18.5 kmh SE 16.1 mph25.9 kmh 30.06 in1017.9 mb - 0.00 in0.0 mm 0.19 in4.8 mm
10:00 AM 49.9°F9.9°C 43.9°F6.6°C 80% 10.4 mph SE16.7 kmh SE 15.0 mph24.1 kmh 30.05 in1017.6 mb - 0.00 in0.0 mm 0.19 in4.8 mm
09:55 AM 49.7°F9.8°C 43.8°F6.6°C 80% 13.8 mph SE22.2 kmh SE 17.3 mph27.8 kmh 30.05 in1017.6 mb - 0.00 in0.0 mm 0.19 in4.8 mm
09:50 AM 49.4°F9.7°C 43.5°F6.4°C 80% 12.7 mph SE20.4 kmh SE 18.4 mph29.6 kmh 30.05 in1017.6 mb - 0.00 in0.0 mm 0.19 in4.8 mm
09:45 AM 49.2°F9.6°C 44.0°F6.7°C 82% 10.4 mph SE16.7 kmh SE 17.3 mph27.8 kmh 30.05 in1017.6 mb - 0.00 in0.0 mm 0.19 in4.8 mm
09:40 AM 49.0°F9.4°C 44.1°F6.7°C 83% 9.2 mph SE14.8 kmh SE 15.0 mph24.1 kmh 30.05 in1017.6 mb - 0.00 in0.0 mm 0.19 in4.8 mm
09:35 AM 48.9°F9.4°C 43.7°F6.5°C 82% 10.4 mph SE16.7 kmh SE 12.7 mph20.4 kmh 30.05 in1017.6 mb - 0.00 in0.0 mm 0.19 in4.8 mm
09:30 AM 48.9°F9.4°C 43.6°F6.4°C 82% 9.2 mph SE14.8 kmh SE 11.5 mph18.5 kmh 30.06 in1017.9 mb - 0.00 in0.0 mm 0.19 in4.8 mm
09:25 AM 48.8°F9.3°C 43.5°F6.4°C 82% 10.4 mph SE16.7 kmh SE 13.8 mph22.2 kmh 30.07 in1018.3 mb - 0.00 in0.0 mm 0.19 in4.8 mm
09:20 AM 48.8°F9.3°C 43.5°F6.4°C 82% 9.2 mph SE14.8 kmh SE 11.5 mph18.5 kmh 30.07 in1018.3 mb - 0.00 in0.0 mm 0.19 in4.8 mm
09:15 AM 48.7°F9.3°C 43.5°F6.4°C 82% 9.2 mph SSE14.8 kmh SSE 17.3 mph27.8 kmh 30.06 in1017.9 mb - 0.00 in0.0 mm 0.19 in4.8 mm
09:10 AM 48.6°F9.2°C 43.4°F6.3°C 82% 10.4 mph SE16.7 kmh SE 19.6 mph31.5 kmh 30.06 in1017.9 mb - 0.00 in0.0 mm 0.19 in4.8 mm
09:00 AM 48.4°F9.1°C 43.5°F6.4°C 83% 8.1 mph SE13.0 kmh SE 12.7 mph20.4 kmh 30.06 in1017.9 mb - 0.00 in0.0 mm 0.19 in4.8 mm
08:55 AM 48.2°F9.0°C 43.3°F6.3°C 83% 10.4 mph S16.7 kmh S 16.1 mph25.9 kmh 30.05 in1017.6 mb - 0.00 in0.0 mm 0.19 in4.8 mm
08:50 AM 48.2°F9.0°C 43.2°F6.2°C 83% 9.2 mph SE14.8 kmh SE 11.5 mph18.5 kmh 30.04 in1017.3 mb - 0.00 in0.0 mm 0.19 in4.8 mm
08:45 AM 47.9°F8.8°C 43.3°F6.3°C 84% 10.4 mph SE16.7 kmh SE 18.4 mph29.6 kmh 30.04 in1017.3 mb - 0.00 in0.0 mm 0.19 in4.8 mm
08:40 AM 47.8°F8.8°C 43.2°F6.2°C 84% 9.2 mph SE14.8 kmh SE 11.5 mph18.5 kmh 30.03 in1016.9 mb - 0.00 in0.0 mm 0.19 in4.8 mm
08:35 AM 47.9°F8.8°C 43.3°F6.3°C 84% 9.2 mph SSE14.8 kmh SSE 11.5 mph18.5 kmh 30.04 in1017.3 mb - 0.00 in0.0 mm 0.19 in4.8 mm
08:30 AM 47.9°F8.8°C 43.3°F6.3°C 84% 10.4 mph SE16.7 kmh SE 13.8 mph22.2 kmh 30.04 in1017.3 mb - 0.00 in0.0 mm 0.19 in4.8 mm
08:25 AM 47.8°F8.8°C 43.5°F6.4°C 85% 10.4 mph SE16.7 kmh SE 12.7 mph20.4 kmh 30.03 in1016.9 mb - 0.00 in0.0 mm 0.19 in4.8 mm
08:20 AM 47.6°F8.7°C 43.3°F6.3°C 85% 12.7 mph SE20.4 kmh SE 19.6 mph31.5 kmh 30.04 in1017.3 mb - 0.00 in0.0 mm 0.19 in4.8 mm
08:15 AM 47.5°F8.6°C 43.5°F6.4°C 86% 10.4 mph SE16.7 kmh SE 13.8 mph22.2 kmh 30.04 in1017.3 mb - 0.00 in0.0 mm 0.19 in4.8 mm
08:10 AM 47.3°F8.5°C 43.3°F6.3°C 86% 9.2 mph SE14.8 kmh SE 12.7 mph20.4 kmh 30.04 in1017.3 mb - 0.00 in0.0 mm 0.19 in4.8 mm
08:00 AM 47.3°F8.5°C 43.6°F6.4°C 87% 9.2 mph SE14.8 kmh SE 11.5 mph18.5 kmh 30.03 in1016.9 mb - 0.00 in0.0 mm 0.19 in4.8 mm
07:55 AM 47.2°F8.4°C 43.5°F6.4°C 87% 11.5 mph SE18.5 kmh SE 17.3 mph27.8 kmh 30.03 in1016.9 mb - 0.00 in0.0 mm 0.19 in4.8 mm
07:50 AM 47.0°F8.3°C 43.6°F6.4°C 88% 11.5 mph SE18.5 kmh SE 18.4 mph29.6 kmh 30.02 in1016.6 mb - 0.00 in0.0 mm 0.19 in4.8 mm
07:45 AM 47.0°F8.3°C 43.6°F6.4°C 88% 9.2 mph SE14.8 kmh SE 12.7 mph20.4 kmh 30.03 in1016.9 mb - 0.00 in0.0 mm 0.19 in4.8 mm
07:40 AM 47.0°F8.3°C 43.9°F6.6°C 89% 10.4 mph SE16.7 kmh SE 11.5 mph18.5 kmh 30.03 in1016.9 mb - 0.00 in0.0 mm 0.19 in4.8 mm
07:35 AM 46.9°F8.3°C 43.9°F6.6°C 89% 10.4 mph SE16.7 kmh SE 15.0 mph24.1 kmh 30.03 in1016.9 mb - 0.00 in0.0 mm 0.19 in4.8 mm
07:30 AM 46.9°F8.3°C 43.8°F6.6°C 89% 10.4 mph SE16.7 kmh SE 15.0 mph24.1 kmh 30.03 in1016.9 mb - 0.00 in0.0 mm 0.19 in4.8 mm
07:25 AM 47.0°F8.3°C 43.9°F6.6°C 89% 10.4 mph SE16.7 kmh SE 17.3 mph27.8 kmh 30.04 in1017.3 mb - 0.00 in0.0 mm 0.19 in4.8 mm
07:20 AM 47.0°F8.3°C 44.0°F6.7°C 89% 11.5 mph SE18.5 kmh SE 17.3 mph27.8 kmh 30.04 in1017.3 mb - 0.01 in0.3 mm 0.19 in4.8 mm
07:15 AM 47.0°F8.3°C 43.9°F6.6°C 89% 12.7 mph SE20.4 kmh SE 19.6 mph31.5 kmh 30.03 in1016.9 mb - 0.01 in0.3 mm 0.19 in4.8 mm
07:10 AM 47.1°F8.4°C 44.0°F6.7°C 89% 12.7 mph SE20.4 kmh SE 15.0 mph24.1 kmh 30.03 in1016.9 mb - 0.01 in0.3 mm 0.19 in4.8 mm
07:00 AM 46.9°F8.3°C 44.1°F6.7°C 90% 11.5 mph SE18.5 kmh SE 16.1 mph25.9 kmh 30.04 in1017.3 mb - 0.01 in0.3 mm 0.19 in4.8 mm
06:55 AM 47.0°F8.3°C 44.2°F6.8°C 90% 12.7 mph SE20.4 kmh SE 18.4 mph29.6 kmh 30.04 in1017.3 mb - 0.01 in0.3 mm 0.19 in4.8 mm
06:50 AM 46.7°F8.2°C 44.2°F6.8°C 91% 10.4 mph SE16.7 kmh SE 16.1 mph25.9 kmh 30.04 in1017.3 mb - 0.01 in0.3 mm 0.19 in4.8 mm
06:45 AM 46.7°F8.2°C 44.2°F6.8°C 91% 11.5 mph SE18.5 kmh SE 13.8 mph22.2 kmh 30.04 in1017.3 mb - 0.01 in0.3 mm 0.19 in4.8 mm
06:40 AM 46.7°F8.2°C 44.2°F6.8°C 91% 10.4 mph SE16.7 kmh SE 12.7 mph20.4 kmh 30.04 in1017.3 mb - 0.01 in0.3 mm 0.19 in4.8 mm
06:35 AM 46.5°F8.1°C 44.3°F6.8°C 92% 11.5 mph SE18.5 kmh SE 17.3 mph27.8 kmh 30.04 in1017.3 mb - 0.01 in0.3 mm 0.19 in4.8 mm
06:30 AM 46.4°F8.0°C 44.2°F6.8°C 92% 10.4 mph SE16.7 kmh SE 15.0 mph24.1 kmh 30.04 in1017.3 mb - 0.01 in0.3 mm 0.19 in4.8 mm
06:25 AM 46.5°F8.1°C 44.3°F6.8°C 92% 11.5 mph SE18.5 kmh SE 15.0 mph24.1 kmh 30.04 in1017.3 mb - 0.01 in0.3 mm 0.19 in4.8 mm
06:20 AM 46.4°F8.0°C 44.2°F6.8°C 92% 10.4 mph SSE16.7 kmh SSE 15.0 mph24.1 kmh 30.03 in1016.9 mb - 0.00 in0.0 mm 0.18 in4.6 mm
06:15 AM 46.4°F8.0°C 44.2°F6.8°C 92% 11.5 mph SE18.5 kmh SE 18.4 mph29.6 kmh 30.03 in1016.9 mb - 0.00 in0.0 mm 0.18 in4.6 mm
06:10 AM 46.3°F7.9°C 44.4°F6.9°C 93% 10.4 mph SSE16.7 kmh SSE 19.6 mph31.5 kmh 30.03 in1016.9 mb - 0.00 in0.0 mm 0.18 in4.6 mm
06:00 AM 45.8°F7.7°C 44.2°F6.8°C 94% 8.1 mph SSE13.0 kmh SSE 13.8 mph22.2 kmh 30.02 in1016.6 mb - 0.02 in0.5 mm 0.18 in4.6 mm
05:55 AM 45.8°F7.7°C 44.2°F6.8°C 94% 9.2 mph SE14.8 kmh SE 12.7 mph20.4 kmh 30.02 in1016.6 mb - 0.03 in0.8 mm 0.18 in4.6 mm
05:50 AM 45.7°F7.6°C 44.1°F6.7°C 94% 8.1 mph SE13.0 kmh SE 16.1 mph25.9 kmh 30.02 in1016.6 mb - 0.04 in1.0 mm 0.18 in4.6 mm
05:45 AM 45.7°F7.6°C 44.1°F6.7°C 94% 10.4 mph SE16.7 kmh SE 16.1 mph25.9 kmh 30.02 in1016.6 mb - 0.06 in1.5 mm 0.18 in4.6 mm
05:40 AM 45.7°F7.6°C 44.1°F6.7°C 94% 10.4 mph SE16.7 kmh SE 13.8 mph22.2 kmh 30.02 in1016.6 mb - 0.08 in2.0 mm 0.18 in4.6 mm
05:35 AM 45.5°F7.5°C 44.1°F6.7°C 95% 12.7 mph SE20.4 kmh SE 19.6 mph31.5 kmh 30.01 in1016.3 mb - 0.09 in2.3 mm 0.18 in4.6 mm
05:30 AM 45.2°F7.3°C 43.9°F6.6°C 95% 8.1 mph SE13.0 kmh SE 12.7 mph20.4 kmh 30.01 in1016.3 mb - 0.10 in2.5 mm 0.18 in4.6 mm
05:25 AM 45.2°F7.3°C 43.9°F6.6°C 95% 6.9 mph SSE11.1 kmh SSE 10.4 mph16.7 kmh 30.01 in1016.3 mb - 0.12 in3.0 mm 0.18 in4.6 mm
05:20 AM 45.2°F7.3°C 43.9°F6.6°C 95% 8.1 mph SE13.0 kmh SE 11.5 mph18.5 kmh 30.02 in1016.6 mb - 0.13 in3.3 mm 0.18 in4.6 mm
05:15 AM 45.2°F7.3°C 43.9°F6.6°C 95% 4.6 mph S7.4 kmh S 9.2 mph14.8 kmh 30.02 in1016.6 mb - 0.13 in3.3 mm 0.18 in4.6 mm
05:10 AM 45.2°F7.3°C 43.9°F6.6°C 95% 3.5 mph S5.6 kmh S 5.8 mph9.3 kmh 30.01 in1016.3 mb - 0.14 in3.6 mm 0.18 in4.6 mm
05:00 AM 45.2°F7.3°C 43.9°F6.6°C 95% 5.8 mph SSE9.3 kmh SSE 8.1 mph13.0 kmh 30.01 in1016.3 mb - 0.13 in3.3 mm 0.16 in4.1 mm
04:55 AM 45.3°F7.4°C 43.9°F6.6°C 95% 5.8 mph S9.3 kmh S 6.9 mph11.1 kmh 30.01 in1016.3 mb - 0.12 in3.0 mm 0.15 in3.8 mm
04:50 AM 45.4°F7.4°C 44.0°F6.7°C 95% 5.8 mph SE9.3 kmh SE 9.2 mph14.8 kmh 30.01 in1016.3 mb - 0.12 in3.0 mm 0.14 in3.6 mm
04:45 AM 45.4°F7.4°C 44.1°F6.7°C 95% 6.9 mph SE11.1 kmh SE 11.5 mph18.5 kmh 30.02 in1016.6 mb - 0.10 in2.5 mm 0.12 in3.0 mm
04:40 AM 45.5°F7.5°C 44.1°F6.7°C 95% 8.1 mph SE13.0 kmh SE 12.7 mph20.4 kmh 30.02 in1016.6 mb - 0.09 in2.3 mm 0.11 in2.8 mm
04:35 AM 45.6°F7.6°C 44.0°F6.7°C 94% 6.9 mph S11.1 kmh S 11.5 mph18.5 kmh 30.02 in1016.6 mb - 0.07 in1.8 mm 0.09 in2.3 mm
04:30 AM 45.7°F7.6°C 44.1°F6.7°C 94% 11.5 mph SE18.5 kmh SE 18.4 mph29.6 kmh 30.02 in1016.6 mb - 0.06 in1.5 mm 0.08 in2.0 mm
04:25 AM 45.7°F7.6°C 44.1°F6.7°C 94% 9.2 mph SE14.8 kmh SE 16.1 mph25.9 kmh 30.02 in1016.6 mb - 0.04 in1.0 mm 0.06 in1.5 mm
04:20 AM 45.6°F7.6°C 44.0°F6.7°C 94% 9.2 mph SE14.8 kmh SE 15.0 mph24.1 kmh 30.02 in1016.6 mb - 0.03 in0.8 mm 0.05 in1.3 mm
04:15 AM 45.7°F7.6°C 44.1°F6.7°C 94% 10.4 mph SE16.7 kmh SE 12.7 mph20.4 kmh 30.01 in1016.3 mb - 0.03 in0.8 mm 0.05 in1.3 mm
04:10 AM 45.7°F7.6°C 44.1°F6.7°C 94% 10.4 mph SE16.7 kmh SE 16.1 mph25.9 kmh 30.01 in1016.3 mb - 0.02 in0.5 mm 0.04 in1.0 mm
04:00 AM 45.7°F7.6°C 44.0°F6.7°C 94% 10.4 mph SE16.7 kmh SE 12.7 mph20.4 kmh 30.00 in1015.9 mb - 0.01 in0.3 mm 0.03 in0.8 mm
03:55 AM 45.6°F7.6°C 44.3°F6.8°C 95% 8.1 mph SE13.0 kmh SE 12.7 mph20.4 kmh 30.01 in1016.3 mb - 0.01 in0.3 mm 0.03 in0.8 mm
03:50 AM 45.5°F7.5°C 44.1°F6.7°C 95% 9.2 mph SE14.8 kmh SE 13.8 mph22.2 kmh 30.01 in1016.3 mb - 0.01 in0.3 mm 0.03 in0.8 mm
03:45 AM 45.5°F7.5°C 44.1°F6.7°C 95% 8.1 mph SSE13.0 kmh SSE 12.7 mph20.4 kmh 30.01 in1016.3 mb - 0.00 in0.0 mm 0.02 in0.5 mm
03:40 AM 45.4°F7.4°C 44.1°F6.7°C 95% 8.1 mph SE13.0 kmh SE 10.4 mph16.7 kmh 30.01 in1016.3 mb - 0.00 in0.0 mm 0.02 in0.5 mm
03:35 AM 45.4°F7.4°C 44.1°F6.7°C 95% 6.9 mph SSE11.1 kmh SSE 9.2 mph14.8 kmh 30.01 in1016.3 mb - 0.00 in0.0 mm 0.02 in0.5 mm
03:30 AM 45.4°F7.4°C 44.1°F6.7°C 95% 6.9 mph SSE11.1 kmh SSE 11.5 mph18.5 kmh 30.02 in1016.6 mb - 0.00 in0.0 mm 0.02 in0.5 mm
03:25 AM 45.4°F7.4°C 44.1°F6.7°C 95% 8.1 mph SE13.0 kmh SE 10.4 mph16.7 kmh 30.01 in1016.3 mb - 0.00 in0.0 mm 0.02 in0.5 mm
03:20 AM 45.4°F7.4°C 44.1°F6.7°C 95% 6.9 mph SE11.1 kmh SE 11.5 mph18.5 kmh 30.01 in1016.3 mb - 0.00 in0.0 mm 0.02 in0.5 mm
03:15 AM 45.4°F7.4°C 44.1°F6.7°C 95% 8.1 mph SE13.0 kmh SE 11.5 mph18.5 kmh 30.01 in1016.3 mb - 0.00 in0.0 mm 0.02 in0.5 mm
03:10 AM 45.4°F7.4°C 44.1°F6.7°C 95% 8.1 mph SE13.0 kmh SE 11.5 mph18.5 kmh 30.01 in1016.3 mb - 0.00 in0.0 mm 0.02 in0.5 mm
03:00 AM 45.3°F7.4°C 44.2°F6.8°C 96% 6.9 mph SE11.1 kmh SE 11.5 mph18.5 kmh 30.01 in1016.3 mb - 0.00 in0.0 mm 0.02 in0.5 mm
02:55 AM 45.2°F7.3°C 44.1°F6.7°C 96% 8.1 mph SE13.0 kmh SE 12.7 mph20.4 kmh 30.02 in1016.6 mb - 0.00 in0.0 mm 0.02 in0.5 mm
02:50 AM 45.2°F7.3°C 44.1°F6.7°C 96% 9.2 mph SSE14.8 kmh SSE 13.8 mph22.2 kmh 30.02 in1016.6 mb - 0.00 in0.0 mm 0.02 in0.5 mm
02:45 AM 45.2°F7.3°C 44.1°F6.7°C 96% 6.9 mph SE11.1 kmh SE 11.5 mph18.5 kmh 30.02 in1016.6 mb - 0.00 in0.0 mm 0.02 in0.5 mm
02:40 AM 45.1°F7.3°C 44.0°F6.7°C 96% 6.9 mph SE11.1 kmh SE 9.2 mph14.8 kmh 30.02 in1016.6 mb - 0.00 in0.0 mm 0.02 in0.5 mm
02:35 AM 45.1°F7.3°C 44.0°F6.7°C 96% 8.1 mph SSE13.0 kmh SSE 12.7 mph20.4 kmh 30.02 in1016.6 mb - 0.00 in0.0 mm 0.02 in0.5 mm
02:30 AM 45.0°F7.2°C 43.9°F6.6°C 96% 10.4 mph SE16.7 kmh SE 15.0 mph24.1 kmh 30.02 in1016.6 mb - 0.00 in0.0 mm 0.02 in0.5 mm
02:25 AM 44.9°F7.2°C 43.8°F6.6°C 96% 9.2 mph SE14.8 kmh SE 13.8 mph22.2 kmh 30.02 in1016.6 mb - 0.00 in0.0 mm 0.02 in0.5 mm
02:20 AM 44.8°F7.1°C 43.8°F6.6°C 96% 8.1 mph SSE13.0 kmh SSE 11.5 mph18.5 kmh 30.02 in1016.6 mb - 0.01 in0.3 mm 0.02 in0.5 mm
02:15 AM 44.7°F7.1°C 43.6°F6.4°C 96% 6.9 mph SE11.1 kmh SE 11.5 mph18.5 kmh 30.02 in1016.6 mb - 0.01 in0.3 mm 0.02 in0.5 mm
02:10 AM 44.7°F7.1°C 43.6°F6.4°C 96% 10.4 mph SSE16.7 kmh SSE 18.4 mph29.6 kmh 30.02 in1016.6 mb - 0.01 in0.3 mm 0.02 in0.5 mm
02:00 AM 44.6°F7.0°C 43.5°F6.4°C 96% 9.2 mph SE14.8 kmh SE 11.5 mph18.5 kmh 30.02 in1016.6 mb - 0.01 in0.3 mm 0.02 in0.5 mm
01:55 AM 44.5°F6.9°C 43.4°F6.3°C 96% 9.2 mph SSE14.8 kmh SSE 11.5 mph18.5 kmh 30.02 in1016.6 mb - 0.01 in0.3 mm 0.02 in0.5 mm
01:50 AM 44.4°F6.9°C 43.3°F6.3°C 96% 8.1 mph S13.0 kmh S 16.1 mph25.9 kmh 30.01 in1016.3 mb - 0.01 in0.3 mm 0.02 in0.5 mm
01:45 AM 44.3°F6.8°C 43.2°F6.2°C 96% 8.1 mph SSE13.0 kmh SSE 12.7 mph20.4 kmh 30.01 in1016.3 mb - 0.01 in0.3 mm 0.02 in0.5 mm
01:40 AM 44.3°F6.8°C 43.2°F6.2°C 96% 8.1 mph S13.0 kmh S 10.4 mph16.7 kmh 30.01 in1016.3 mb - 0.01 in0.3 mm 0.02 in0.5 mm
01:35 AM 44.2°F6.8°C 43.2°F6.2°C 96% 8.1 mph S13.0 kmh S 12.7 mph20.4 kmh 30.00 in1015.9 mb - 0.01 in0.3 mm 0.02 in0.5 mm
01:30 AM 44.2°F6.8°C 43.1°F6.2°C 96% 10.4 mph SE16.7 kmh SE 16.1 mph25.9 kmh 30.01 in1016.3 mb - 0.01 in0.3 mm 0.02 in0.5 mm
01:25 AM 44.2°F6.8°C 43.2°F6.2°C 96% 6.9 mph S11.1 kmh S 8.1 mph13.0 kmh 30.00 in1015.9 mb - 0.01 in0.3 mm 0.02 in0.5 mm
01:20 AM 44.3°F6.8°C 43.2°F6.2°C 96% 6.9 mph SSE11.1 kmh SSE 11.5 mph18.5 kmh 30.00 in1015.9 mb - 0.00 in0.0 mm 0.01 in0.3 mm
01:15 AM 44.3°F6.8°C 43.2°F6.2°C 96% 8.1 mph SSE13.0 kmh SSE 12.7 mph20.4 kmh 30.00 in1015.9 mb - 0.00 in0.0 mm 0.01 in0.3 mm
01:10 AM 44.3°F6.8°C 43.2°F6.2°C 96% 6.9 mph SE11.1 kmh SE 15.0 mph24.1 kmh 30.00 in1015.9 mb - 0.01 in0.3 mm 0.01 in0.3 mm
01:00 AM 44.4°F6.9°C 43.3°F6.3°C 96% 10.4 mph SSE16.7 kmh SSE 13.8 mph22.2 kmh 30.00 in1015.9 mb - 0.01 in0.3 mm 0.01 in0.3 mm
12:55 AM 44.3°F6.8°C 43.2°F6.2°C 96% 11.5 mph SE18.5 kmh SE 16.1 mph25.9 kmh 30.00 in1015.9 mb - 0.01 in0.3 mm 0.01 in0.3 mm
12:50 AM 44.4°F6.9°C 43.3°F6.3°C 96% 9.2 mph SE14.8 kmh SE 18.4 mph29.6 kmh 30.00 in1015.9 mb - 0.01 in0.3 mm 0.01 in0.3 mm
12:45 AM 44.4°F6.9°C 43.3°F6.3°C 96% 11.5 mph SSE18.5 kmh SSE 18.4 mph29.6 kmh 30.00 in1015.9 mb - 0.01 in0.3 mm 0.01 in0.3 mm
12:40 AM 44.4°F6.9°C 43.3°F6.3°C 96% 12.7 mph SSE20.4 kmh SSE 16.1 mph25.9 kmh 30.00 in1015.9 mb - 0.02 in0.5 mm 0.01 in0.3 mm
12:35 AM 44.5°F6.9°C 43.4°F6.3°C 96% 13.8 mph SE22.2 kmh SE 26.5 mph42.6 kmh 30.00 in1015.9 mb - 0.02 in0.5 mm 0.01 in0.3 mm
12:30 AM 44.5°F6.9°C 43.4°F6.3°C 96% 13.8 mph SSE22.2 kmh SSE 23.0 mph37.0 kmh 30.00 in1015.9 mb - 0.03 in0.8 mm 0.01 in0.3 mm
12:25 AM 44.5°F6.9°C 43.4°F6.3°C 96% 12.7 mph SSE20.4 kmh SSE 15.0 mph24.1 kmh 30.00 in1015.9 mb - 0.03 in0.8 mm 0.01 in0.3 mm
12:20 AM 44.5°F6.9°C 43.4°F6.3°C 96% 13.8 mph SSE22.2 kmh SSE 19.6 mph31.5 kmh 30.00 in1015.9 mb - 0.03 in0.8 mm 0.01 in0.3 mm
12:15 AM 44.5°F6.9°C 43.4°F6.3°C 96% 11.5 mph S18.5 kmh S 15.0 mph24.1 kmh 30.00 in1015.9 mb - 0.03 in0.8 mm 0.01 in0.3 mm
12:10 AM 44.6°F7.0°C 43.5°F6.4°C 96% 9.2 mph S14.8 kmh S 10.4 mph16.7 kmh 30.00 in1015.9 mb - 0.03 in0.8 mm 0.01 in0.3 mm
12:00 AM 44.5°F6.9°C 43.4°F6.3°C 96% 8.1 mph S13.0 kmh S 16.1 mph25.9 kmh 30.00 in1015.9 mb - 0.04 in1.0 mm 0.04 in1.0 mm